Terminal Aerodrome Forecast
Issued by NWS Chicago, IL

Home | Current Version | Previous Version | Text Only | Print | Product List | Glossary On
Versions: 1 2 3 4 5 6 7 8 9 10 11 12 13 14 15 16 17 18 19 20 21 22 23 24 25 26 27 28
689
FTUS43 KLOT 231739
TAFRFD
TAF
KRFD 231739Z 2318/2418 31011G18KT P6SM SCT050
     FM232100 34005KT P6SM SCT050
     FM240200 VRB03KT P6SM FEW050
     FM241400 02005KT P6SM SCT050 BKN100=

USA.gov is the U.S. government's official web portal to all federal, state and local government web resources and services.